createdAt,value
2019-01-13T00:00:50.684Z,3.50
2019-01-13T00:03:32.227Z,3.30
2019-01-13T00:06:21.093Z,2.67
2019-01-13T00:09:10.153Z,4.07
2019-01-13T00:11:58.968Z,2.63
2019-01-13T00:14:47.815Z,3.37
2019-01-13T00:17:36.624Z,3.97
2019-01-13T00:20:25.409Z,4.30
2019-01-13T00:23:33.310Z,5.00
2019-01-13T00:26:22.112Z,4.77
2019-01-13T00:29:10.917Z,4.97
2019-01-13T00:31:59.718Z,3.57
2019-01-13T00:34:48.543Z,3.23
2019-01-13T00:37:37.333Z,3.33
2019-01-13T00:40:26.135Z,3.37
2019-01-13T00:43:14.920Z,4.00
2019-01-13T00:46:22.838Z,3.67
2019-01-13T00:49:11.624Z,4.30
2019-01-13T00:52:00.531Z,4.17
2019-01-13T00:57:43.592Z,4.23
2019-01-13T01:00:32.469Z,2.53
2019-01-13T01:03:21.248Z,2.50
2019-01-13T01:06:10.125Z,2.20
2019-01-13T01:11:54.910Z,3.07
2019-01-13T01:14:43.713Z,3.63
2019-01-13T01:17:32.501Z,2.90
2019-01-13T01:20:21.294Z,3.87
2019-01-13T01:23:10.101Z,4.20
2019-01-13T01:26:17.924Z,5.77
2019-01-13T01:29:06.980Z,3.30
2019-01-13T01:31:55.762Z,3.30
2019-01-13T01:34:44.570Z,2.40
2019-01-13T01:37:33.358Z,3.50
2019-01-13T01:40:22.223Z,4.37
2019-01-13T01:43:11.045Z,3.93
2019-01-13T01:45:59.832Z,3.50
2019-01-13T01:48:48.638Z,3.33
2019-01-13T01:51:37.429Z,3.30
2019-01-13T01:54:26.232Z,5.10
2019-01-13T01:57:15.044Z,3.23
2019-01-13T02:00:24.747Z,2.30
2019-01-13T02:03:13.552Z,3.50
2019-01-13T02:06:02.341Z,2.10
2019-01-13T02:08:51.147Z,2.73
2019-01-13T02:11:39.945Z,3.00
2019-01-13T02:14:28.750Z,6.67
2019-01-13T02:17:17.561Z,2.17
2019-01-13T02:20:27.257Z,2.30
2019-01-13T02:23:16.061Z,2.57
2019-01-13T02:26:04.923Z,3.03
2019-01-13T02:28:53.731Z,3.40
2019-01-13T02:31:42.532Z,2.83
2019-01-13T02:34:31.349Z,5.43
2019-01-13T02:37:20.148Z,2.37
2019-01-13T02:40:29.862Z,2.10
2019-01-13T02:43:18.672Z,5.83
2019-01-13T02:46:07.467Z,3.20
2019-01-13T02:48:56.276Z,4.60
2019-01-13T02:51:45.056Z,3.80
2019-01-13T02:54:33.870Z,10.40
2019-01-13T02:57:22.756Z,5.58
2019-01-13T03:00:32.460Z,3.60
2019-01-13T03:03:21.263Z,3.40
2019-01-13T03:06:03.399Z,2.77
2019-01-13T03:08:52.184Z,2.13
2019-01-13T03:11:40.993Z,2.07
2019-01-13T03:14:29.786Z,5.77
2019-01-13T03:17:18.592Z,4.67
2019-01-13T03:20:28.293Z,5.30
2019-01-13T03:23:17.097Z,6.00
2019-01-13T03:26:05.956Z,4.63
2019-01-13T03:28:54.700Z,5.50
2019-01-13T03:31:43.506Z,5.00
2019-01-13T03:34:32.297Z,10.53
2019-01-13T03:37:21.115Z,5.10
2019-01-13T03:40:30.821Z,3.30
2019-01-13T03:43:19.611Z,3.57
2019-01-13T03:46:08.411Z,3.80
2019-01-13T03:48:57.213Z,4.30
2019-01-13T03:51:46.000Z,4.80
2019-01-13T03:54:35.128Z,10.20
2019-01-13T03:57:23.915Z,5.20
2019-01-13T04:00:33.626Z,5.37
2019-01-13T04:03:22.416Z,5.13
2019-01-13T04:06:04.285Z,4.10
2019-01-13T04:08:53.071Z,9.20
2019-01-13T04:11:41.876Z,5.00
2019-01-13T04:14:30.696Z,8.97
2019-01-13T04:17:19.778Z,6.53
2019-01-13T04:20:08.634Z,10.23
2019-01-13T04:22:57.456Z,6.90
2019-01-13T04:25:46.250Z,7.13
2019-01-13T04:31:29.846Z,5.70
2019-01-13T04:34:18.656Z,5.97
2019-01-13T04:37:07.460Z,6.90
2019-01-13T04:40:15.367Z,8.23
2019-01-13T04:43:04.222Z,6.17
2019-01-13T04:45:53.033Z,7.70
2019-01-13T04:48:41.821Z,8.67
2019-01-13T04:51:30.641Z,10.73
2019-01-13T04:54:19.435Z,12.37
2019-01-13T04:57:08.241Z,9.90
2019-01-13T04:59:57.027Z,9.73
2019-01-13T05:02:45.910Z,12.90
2019-01-13T05:05:34.702Z,10.70
2019-01-13T05:08:14.840Z,10.40
2019-01-13T05:11:03.633Z,11.40
2019-01-13T05:13:52.439Z,10.37
2019-01-13T05:16:41.259Z,12.50
2019-01-13T05:19:30.065Z,9.93
2019-01-13T05:22:18.870Z,10.60
2019-01-13T05:28:22.790Z,11.93
2019-01-13T05:31:11.580Z,9.50
2019-01-13T05:34:00.404Z,9.10
2019-01-13T05:36:49.196Z,8.87
2019-01-13T05:39:38.022Z,8.37
2019-01-13T05:42:26.855Z,8.20
2019-01-13T05:45:36.562Z,8.17
2019-01-13T05:48:25.395Z,8.25
2019-01-13T05:51:14.192Z,9.47
2019-01-13T05:54:22.414Z,8.67
2019-01-13T05:57:11.200Z,8.43
2019-01-13T06:00:00.004Z,8.37
2019-01-13T06:02:48.803Z,8.50
2019-01-13T06:05:37.729Z,8.93
2019-01-13T06:08:19.795Z,7.40
2019-01-13T06:17:02.271Z,7.20
2019-01-13T06:19:51.117Z,6.50
2019-01-13T06:22:40.002Z,7.60
2019-01-13T06:25:28.780Z,8.47
2019-01-13T06:28:17.703Z,6.47
2019-01-13T06:31:06.495Z,5.60
2019-01-13T06:33:55.385Z,5.80
2019-01-13T06:36:44.189Z,7.60
2019-01-13T06:39:32.994Z,6.67
2019-01-13T06:42:21.816Z,5.87
2019-01-13T06:45:31.542Z,6.50
2019-01-13T06:48:20.346Z,10.50
2019-01-13T06:51:09.431Z,9.00
2019-01-13T06:53:58.242Z,6.67
2019-01-13T06:56:47.061Z,7.27
2019-01-13T06:59:35.843Z,9.20
2019-01-13T07:02:24.647Z,6.70
2019-01-13T07:05:13.564Z,8.70
2019-01-13T07:07:55.417Z,7.07
2019-01-13T07:10:44.238Z,14.30
2019-01-13T07:13:33.146Z,7.40
2019-01-13T07:16:21.927Z,6.70
2019-01-13T07:19:10.741Z,7.77
2019-01-13T07:21:59.528Z,6.93
2019-01-13T07:24:48.347Z,6.43
2019-01-13T07:27:37.133Z,6.33
2019-01-13T07:30:26.102Z,4.80
2019-01-13T07:33:14.917Z,7.60
2019-01-13T07:36:03.729Z,4.73
2019-01-13T07:38:52.535Z,4.77
2019-01-13T07:41:41.348Z,5.17
2019-01-13T07:44:30.131Z,8.50
2019-01-13T07:47:18.933Z,4.70
2019-01-13T07:50:28.656Z,6.60
2019-01-13T07:53:17.463Z,5.27
2019-01-13T07:56:25.283Z,5.73
2019-01-13T07:59:14.090Z,6.43
2019-01-13T08:02:02.879Z,4.47
2019-01-13T08:04:51.692Z,3.93
2019-01-13T08:07:33.671Z,4.77
2019-01-13T08:10:22.554Z,4.57
2019-01-13T08:13:11.340Z,4.33
2019-01-13T08:16:00.140Z,5.13
2019-01-13T08:18:48.950Z,4.47
2019-01-13T08:21:37.750Z,5.10
2019-01-13T08:24:26.576Z,8.93
2019-01-13T08:27:15.361Z,5.80
2019-01-13T08:30:25.074Z,4.00
2019-01-13T08:33:13.869Z,5.60
2019-01-13T08:36:02.698Z,3.47
2019-01-13T08:42:19.914Z,4.17
2019-01-13T08:45:29.614Z,4.27
2019-01-13T08:48:18.418Z,4.35
2019-01-13T08:51:07.229Z,6.23
2019-01-13T08:53:56.049Z,3.97
2019-01-13T08:56:44.842Z,8.33
2019-01-13T08:59:33.649Z,3.20
2019-01-13T09:02:22.451Z,2.57
2019-01-13T09:05:11.270Z,2.53
2019-01-13T09:07:52.538Z,2.50
2019-01-13T09:10:41.361Z,2.03
2019-01-13T09:13:30.171Z,3.90
2019-01-13T09:16:18.985Z,3.07
2019-01-13T09:19:07.783Z,3.90
2019-01-13T09:21:56.608Z,3.00
2019-01-13T09:24:45.390Z,3.40
2019-01-13T09:27:34.204Z,2.47
2019-01-13T09:30:42.308Z,1.90
2019-01-13T09:33:31.133Z,2.37
2019-01-13T09:36:19.923Z,6.60
2019-01-13T09:39:08.888Z,3.80
2019-01-13T09:41:57.698Z,1.83
2019-01-13T09:44:46.563Z,2.90
2019-01-13T09:47:37.216Z,4.63
2019-01-13T09:50:26.194Z,3.80
2019-01-13T09:53:14.998Z,3.90
2019-01-13T09:56:03.817Z,3.77
2019-01-13T09:58:52.619Z,2.80
2019-01-13T10:01:41.443Z,2.90
2019-01-13T10:04:30.238Z,7.47
2019-01-13T10:07:12.210Z,2.73
2019-01-13T10:10:01.017Z,7.57
2019-01-13T10:12:49.839Z,6.20
2019-01-13T10:15:38.710Z,9.23
2019-01-13T10:18:08.451Z,8.10
2019-01-13T10:20:57.254Z,4.57
2019-01-13T10:23:46.084Z,12.43
2019-01-13T10:26:34.880Z,7.30
2019-01-13T10:29:23.697Z,2.93
2019-01-13T10:32:12.490Z,9.40
2019-01-13T10:35:01.297Z,9.30
2019-01-13T10:37:51.541Z,7.70
2019-01-13T10:40:40.763Z,12.00
2019-01-13T10:43:29.564Z,8.53
2019-01-13T10:46:18.382Z,7.80
2019-01-13T10:49:07.201Z,9.10
2019-01-13T10:51:55.983Z,7.30
2019-01-13T10:54:44.777Z,3.47
2019-01-13T10:57:33.606Z,4.00
2019-01-13T11:00:41.784Z,1.70
2019-01-13T11:03:30.594Z,2.83
2019-01-13T11:09:19.739Z,4.10
2019-01-13T11:12:08.578Z,1.40
2019-01-13T11:14:57.539Z,3.53
2019-01-13T11:17:46.729Z,3.87
2019-01-13T11:23:51.271Z,1.80
2019-01-13T11:26:40.292Z,5.90
2019-01-13T11:29:32.798Z,1.50
2019-01-13T11:32:19.806Z,2.33
2019-01-13T11:35:29.600Z,2.73
2019-01-13T11:38:18.462Z,3.30
2019-01-13T11:41:07.588Z,1.40
2019-01-13T11:43:56.417Z,2.23
2019-01-13T11:46:45.228Z,4.80
2019-01-13T11:49:34.014Z,2.30
2019-01-13T11:52:22.828Z,3.07
2019-01-13T11:55:32.520Z,4.53
2019-01-13T11:58:21.319Z,2.53
2019-01-13T12:01:10.208Z,1.93
2019-01-13T12:03:59.005Z,5.13
2019-01-13T12:06:47.827Z,2.00
2019-01-13T12:09:29.979Z,2.53
2019-01-13T12:12:18.796Z,2.67
2019-01-13T12:15:28.803Z,4.70
2019-01-13T12:18:17.667Z,3.00
2019-01-13T12:21:06.542Z,3.50
2019-01-13T12:23:55.405Z,2.67
2019-01-13T12:26:44.221Z,2.40
2019-01-13T12:32:40.769Z,2.63
2019-01-13T12:35:48.602Z,1.60
2019-01-13T12:38:37.561Z,1.07
2019-01-13T12:41:26.479Z,3.97
2019-01-13T12:44:15.300Z,2.83
2019-01-13T12:47:04.339Z,3.00
2019-01-13T12:49:53.142Z,2.67
2019-01-13T12:52:41.969Z,4.23
2019-01-13T12:55:30.775Z,2.47
2019-01-13T12:58:19.573Z,5.87
2019-01-13T13:01:08.402Z,3.00
2019-01-13T13:03:57.213Z,2.83
2019-01-13T13:06:46.015Z,1.87
2019-01-13T13:09:28.053Z,2.47
2019-01-13T13:12:16.857Z,1.27
2019-01-13T13:15:26.563Z,1.97
2019-01-13T13:18:15.370Z,4.17
2019-01-13T13:21:04.308Z,5.73
2019-01-13T13:23:53.176Z,4.27
2019-01-13T13:26:42.002Z,4.10
2019-01-13T13:29:30.810Z,2.93
2019-01-13T13:32:20.056Z,2.90
2019-01-13T13:35:12.076Z,3.17
2019-01-13T13:38:00.899Z,1.80
2019-01-13T13:40:49.702Z,7.10
2019-01-13T13:43:37.472Z,3.20
2019-01-13T13:46:26.353Z,4.80
2019-01-13T13:49:15.171Z,3.07
2019-01-13T13:55:19.262Z,4.20
2019-01-13T13:58:08.119Z,2.87
2019-01-13T14:00:56.924Z,1.60
2019-01-13T14:03:46.163Z,1.40
2019-01-13T14:06:36.250Z,2.07
2019-01-13T14:09:17.562Z,2.57
2019-01-13T14:12:06.357Z,1.60
2019-01-13T14:14:55.137Z,3.53
2019-01-13T14:17:43.948Z,3.10
2019-01-13T14:20:51.783Z,3.07
2019-01-13T14:23:40.580Z,3.50
2019-01-13T14:26:29.399Z,2.10
2019-01-13T14:29:18.182Z,1.57
2019-01-13T14:32:07.000Z,1.90
2019-01-13T14:34:55.786Z,1.20
2019-01-13T14:37:44.657Z,2.73
2019-01-13T14:40:33.451Z,1.20
2019-01-13T14:43:22.257Z,2.13
2019-01-13T14:46:11.413Z,2.20
2019-01-13T14:49:00.220Z,1.60
2019-01-13T14:51:49.021Z,2.97
2019-01-13T14:54:30.538Z,3.73
2019-01-13T14:57:19.339Z,2.67
2019-01-13T15:00:29.524Z,1.73
2019-01-13T15:03:19.304Z,1.33
2019-01-13T15:06:08.477Z,1.40
2019-01-13T15:08:49.740Z,1.83
2019-01-13T15:11:38.600Z,1.67
2019-01-13T15:14:27.395Z,4.60
2019-01-13T15:17:16.208Z,3.57
2019-01-13T15:20:25.940Z,2.90
2019-01-13T15:23:14.760Z,3.62
2019-01-13T15:28:59.379Z,4.10
2019-01-13T15:31:48.193Z,1.47
2019-01-13T15:37:44.752Z,1.23
2019-01-13T15:40:33.537Z,1.33
2019-01-13T15:43:22.354Z,1.90
2019-01-13T15:46:11.250Z,2.30
2019-01-13T15:51:54.783Z,2.13
2019-01-13T15:54:36.840Z,2.30
2019-01-13T15:57:25.647Z,4.12
2019-01-13T16:00:35.358Z,2.10
2019-01-13T16:03:24.153Z,1.97
2019-01-13T16:06:12.980Z,3.00
2019-01-13T16:09:01.805Z,2.40
2019-01-13T16:11:50.638Z,1.05
2019-01-13T16:14:39.446Z,2.43
2019-01-13T16:17:28.522Z,3.30
2019-01-13T16:20:38.252Z,3.00
2019-01-13T16:23:27.040Z,2.60
2019-01-13T16:26:15.849Z,3.33
2019-01-13T16:29:04.632Z,2.50
2019-01-13T16:31:53.443Z,2.03
2019-01-13T16:34:42.276Z,3.50
2019-01-13T16:37:31.138Z,2.00
2019-01-13T16:40:40.852Z,1.97
2019-01-13T16:43:29.805Z,2.17
2019-01-13T16:46:18.717Z,2.90
2019-01-13T16:49:07.944Z,2.33
2019-01-13T16:51:57.097Z,1.87
2019-01-13T16:54:38.822Z,3.63
2019-01-13T16:57:27.748Z,2.10
2019-01-13T17:00:37.503Z,2.83
2019-01-13T17:03:26.438Z,2.30
2019-01-13T17:06:15.270Z,1.77
2019-01-13T17:09:25.020Z,5.80
2019-01-13T17:12:07.173Z,3.03
2019-01-13T17:14:56.313Z,3.63
2019-01-13T17:17:45.734Z,2.93
2019-01-13T17:20:35.228Z,4.47
2019-01-13T17:23:24.570Z,3.75
2019-01-13T17:26:14.156Z,5.40
2019-01-13T17:29:03.739Z,3.37
2019-01-13T17:31:52.675Z,3.40
2019-01-13T17:34:41.478Z,4.80
2019-01-13T17:37:30.398Z,3.37
2019-01-13T17:40:40.100Z,4.50
2019-01-13T17:43:29.230Z,3.97
2019-01-13T17:46:18.025Z,3.00
2019-01-13T17:49:06.940Z,4.43
2019-01-13T17:51:55.852Z,6.03
2019-01-13T17:54:38.362Z,7.47
2019-01-13T17:57:27.209Z,4.53
2019-01-13T18:00:37.119Z,3.43
2019-01-13T18:03:47.035Z,3.00
2019-01-13T18:06:36.349Z,3.30
2019-01-13T18:09:25.935Z,2.80
2019-01-13T18:12:07.788Z,2.70
2019-01-13T18:14:57.201Z,4.17
2019-01-13T18:17:46.543Z,4.77
2019-01-13T18:23:45.417Z,4.90
2019-01-13T18:26:34.359Z,6.13
2019-01-13T18:29:23.356Z,4.97
2019-01-13T18:32:12.561Z,5.33
2019-01-13T18:35:02.037Z,5.50
2019-01-13T18:38:10.721Z,3.30
2019-01-13T18:41:00.518Z,2.90
2019-01-13T18:43:50.363Z,3.83
2019-01-13T18:49:37.875Z,3.33
2019-01-13T18:52:27.634Z,3.60
2019-01-13T18:58:45.468Z,3.50
2019-01-13T19:01:23.070Z,2.50
2019-01-13T19:04:12.862Z,2.27
2019-01-13T19:07:19.110Z,2.13
2019-01-13T19:09:48.661Z,2.17
2019-01-13T19:46:36.266Z,3.30
2019-01-13T19:49:26.223Z,5.60
2019-01-13T20:01:55.254Z,3.20
2019-01-13T20:05:04.017Z,4.97
2019-01-13T20:11:01.861Z,5.20
2019-01-13T20:14:25.193Z,2.83
2019-01-13T20:20:33.053Z,3.37
2019-01-13T20:23:34.635Z,4.77
2019-01-13T20:35:52.053Z,2.77
2019-01-13T20:42:29.482Z,3.20
2019-01-13T20:45:55.614Z,3.67
2019-01-13T20:48:33.060Z,5.20
2019-01-13T20:51:23.077Z,4.10
2019-01-13T20:54:31.784Z,4.00
2019-01-13T20:57:21.880Z,6.00
2019-01-13T21:00:44.213Z,4.00
2019-01-13T21:09:11.438Z,6.97
2019-01-13T21:12:15.382Z,3.07
2019-01-13T21:21:38.476Z,5.67
2019-01-13T21:33:49.499Z,3.03
2019-01-13T21:36:53.440Z,6.93
2019-01-13T21:45:39.882Z,4.20
2019-01-13T21:48:29.997Z,3.17
2019-01-13T21:54:10.902Z,6.80
2019-01-13T21:56:56.772Z,4.63
2019-01-13T21:59:45.569Z,4.70
2019-01-13T22:02:34.395Z,3.37
2019-01-13T22:08:56.058Z,3.30
2019-01-13T22:11:42.398Z,4.53
2019-01-13T22:14:31.224Z,6.93
2019-01-13T22:17:20.024Z,2.77
2019-01-13T22:20:29.745Z,4.80
2019-01-13T22:23:18.540Z,4.60
2019-01-13T22:29:02.469Z,4.30
2019-01-13T22:31:51.280Z,3.63
2019-01-13T22:34:40.121Z,3.33
2019-01-13T22:37:28.919Z,2.37
2019-01-13T22:43:33.694Z,4.40
2019-01-13T22:46:22.625Z,2.80
2019-01-13T22:49:11.434Z,4.07
2019-01-13T22:52:00.246Z,4.67
2019-01-13T22:54:42.352Z,7.33
2019-01-13T22:57:31.137Z,4.87
2019-01-13T23:00:59.898Z,3.20
2019-01-13T23:06:58.149Z,2.93
2019-01-13T23:09:46.971Z,3.03
2019-01-13T23:12:35.791Z,3.50
2019-01-13T23:15:24.661Z,5.47
2019-01-13T23:18:13.474Z,3.17
2019-01-13T23:21:02.269Z,4.50
2019-01-13T23:23:51.132Z,3.13
2019-01-13T23:26:39.926Z,3.03
2019-01-13T23:29:28.761Z,3.00
2019-01-13T23:32:17.827Z,5.57
2019-01-13T23:35:06.815Z,3.40
2019-01-13T23:37:55.599Z,3.13
2019-01-13T23:40:44.419Z,4.67
2019-01-13T23:46:41.049Z,4.10
2019-01-13T23:52:37.666Z,3.37
2019-01-13T23:55:19.319Z,3.23
2019-01-13T23:58:08.150Z,3.10
